sensor_id;sensor_type;location;lat;lon;timestamp;temperature;humidity
45207;DHT22;30950;53.086;21.576;2023-04-15T00:01:52;11.50;99.90
45207;DHT22;30950;53.086;21.576;2023-04-15T00:04:20;11.30;99.90
45207;DHT22;30950;53.086;21.576;2023-04-15T00:06:51;11.30;99.90
45207;DHT22;30950;53.086;21.576;2023-04-15T00:09:20;11.30;99.90
45207;DHT22;30950;53.086;21.576;2023-04-15T00:11:47;11.30;99.90
45207;DHT22;30950;53.086;21.576;2023-04-15T00:14:15;11.30;99.90
45207;DHT22;30950;53.086;21.576;2023-04-15T00:16:42;11.30;99.90
45207;DHT22;30950;53.086;21.576;2023-04-15T00:19:10;11.30;99.90
45207;DHT22;30950;53.086;21.576;2023-04-15T00:21:37;11.50;99.90
45207;DHT22;30950;53.086;21.576;2023-04-15T00:24:05;11.70;99.90
45207;DHT22;30950;53.086;21.576;2023-04-15T00:26:32;11.60;99.90
45207;DHT22;30950;53.086;21.576;2023-04-15T00:28:59;11.60;99.90
45207;DHT22;30950;53.086;21.576;2023-04-15T00:31:27;11.30;99.90
45207;DHT22;30950;53.086;21.576;2023-04-15T00:33:54;11.30;99.90
45207;DHT22;30950;53.086;21.576;2023-04-15T00:36:22;11.30;99.90
45207;DHT22;30950;53.086;21.576;2023-04-15T00:38:49;11.30;99.90
45207;DHT22;30950;53.086;21.576;2023-04-15T00:41:17;11.30;99.90
45207;DHT22;30950;53.086;21.576;2023-04-15T00:43:45;11.40;99.90
45207;DHT22;30950;53.086;21.576;2023-04-15T00:46:13;11.30;99.90
45207;DHT22;30950;53.086;21.576;2023-04-15T00:48:42;12.40;99.90
45207;DHT22;30950;53.086;21.576;2023-04-15T00:51:10;12.20;99.90
45207;DHT22;30950;53.086;21.576;2023-04-15T00:53:37;11.90;99.90
45207;DHT22;30950;53.086;21.576;2023-04-15T00:56:05;11.50;99.90
45207;DHT22;30950;53.086;21.576;2023-04-15T00:58:32;11.30;99.90
45207;DHT22;30950;53.086;21.576;2023-04-15T01:01:00;11.70;99.90
45207;DHT22;30950;53.086;21.576;2023-04-15T01:03:29;11.30;99.90
45207;DHT22;30950;53.086;21.576;2023-04-15T01:05:57;11.30;99.90
45207;DHT22;30950;53.086;21.576;2023-04-15T01:08:28;11.30;99.90
45207;DHT22;30950;53.086;21.576;2023-04-15T01:10:58;11.30;99.90
45207;DHT22;30950;53.086;21.576;2023-04-15T01:13:28;12.10;99.90
45207;DHT22;30950;53.086;21.576;2023-04-15T01:15:56;11.90;99.90
45207;DHT22;30950;53.086;21.576;2023-04-15T01:18:24;11.20;99.90
45207;DHT22;30950;53.086;21.576;2023-04-15T01:20:52;11.20;99.90
45207;DHT22;30950;53.086;21.576;2023-04-15T01:23:22;11.20;99.90
45207;DHT22;30950;53.086;21.576;2023-04-15T01:25:50;11.10;99.90
45207;DHT22;30950;53.086;21.576;2023-04-15T01:28:19;11.20;99.90
45207;DHT22;30950;53.086;21.576;2023-04-15T01:30:47;11.20;99.90
45207;DHT22;30950;53.086;21.576;2023-04-15T01:33:15;11.20;99.90
45207;DHT22;30950;53.086;21.576;2023-04-15T01:35:42;11.50;99.90
45207;DHT22;30950;53.086;21.576;2023-04-15T01:38:11;11.20;99.90
45207;DHT22;30950;53.086;21.576;2023-04-15T01:40:38;11.10;99.90
45207;DHT22;30950;53.086;21.576;2023-04-15T01:43:05;11.20;99.90
45207;DHT22;30950;53.086;21.576;2023-04-15T01:45:32;11.70;99.90
45207;DHT22;30950;53.086;21.576;2023-04-15T01:48:03;12.10;99.90
45207;DHT22;30950;53.086;21.576;2023-04-15T01:50:30;11.20;99.90
45207;DHT22;30950;53.086;21.576;2023-04-15T01:52:57;11.20;99.90
45207;DHT22;30950;53.086;21.576;2023-04-15T01:55:24;11.80;99.90
45207;DHT22;30950;53.086;21.576;2023-04-15T01:57:52;11.50;99.90
45207;DHT22;30950;53.086;21.576;2023-04-15T02:00:20;11.10;99.90
45207;DHT22;30950;53.086;21.576;2023-04-15T02:02:48;11.20;99.90
45207;DHT22;30950;53.086;21.576;2023-04-15T02:05:15;11.20;99.90
45207;DHT22;30950;53.086;21.576;2023-04-15T02:07:47;11.20;99.90
45207;DHT22;30950;53.086;21.576;2023-04-15T02:10:14;11.10;99.90
45207;DHT22;30950;53.086;21.576;2023-04-15T02:12:42;11.10;99.90
45207;DHT22;30950;53.086;21.576;2023-04-15T02:15:10;11.40;99.90
45207;DHT22;30950;53.086;21.576;2023-04-15T02:17:37;11.10;99.90
45207;DHT22;30950;53.086;21.576;2023-04-15T02:20:07;11.10;99.90
45207;DHT22;30950;53.086;21.576;2023-04-15T02:22:35;11.10;99.90
45207;DHT22;30950;53.086;21.576;2023-04-15T02:25:02;11.30;99.90
45207;DHT22;30950;53.086;21.576;2023-04-15T02:27:31;11.10;99.90
45207;DHT22;30950;53.086;21.576;2023-04-15T02:29:58;11.10;99.90
45207;DHT22;30950;53.086;21.576;2023-04-15T02:32:26;11.00;99.90
45207;DHT22;30950;53.086;21.576;2023-04-15T02:34:54;11.70;99.90
45207;DHT22;30950;53.086;21.576;2023-04-15T02:37:22;11.00;99.90
45207;DHT22;30950;53.086;21.576;2023-04-15T02:39:50;11.40;99.90
45207;DHT22;30950;53.086;21.576;2023-04-15T02:42:18;11.20;99.90
45207;DHT22;30950;53.086;21.576;2023-04-15T02:44:48;11.70;99.90
45207;DHT22;30950;53.086;21.576;2023-04-15T02:47:17;11.00;99.90
45207;DHT22;30950;53.086;21.576;2023-04-15T02:49:44;11.50;99.90
45207;DHT22;30950;53.086;21.576;2023-04-15T02:52:11;11.00;99.90
45207;DHT22;30950;53.086;21.576;2023-04-15T02:54:39;11.90;99.90
45207;DHT22;30950;53.086;21.576;2023-04-15T02:57:07;11.00;99.90
45207;DHT22;30950;53.086;21.576;2023-04-15T02:59:34;11.00;99.90
45207;DHT22;30950;53.086;21.576;2023-04-15T03:02:02;11.50;99.90
45207;DHT22;30950;53.086;21.576;2023-04-15T03:04:29;10.90;99.90
45207;DHT22;30950;53.086;21.576;2023-04-15T03:06:57;10.90;99.90
45207;DHT22;30950;53.086;21.576;2023-04-15T03:09:25;11.40;99.90
45207;DHT22;30950;53.086;21.576;2023-04-15T03:11:54;10.90;99.90
45207;DHT22;30950;53.086;21.576;2023-04-15T03:14:21;10.90;99.90
45207;DHT22;30950;53.086;21.576;2023-04-15T03:16:49;11.30;99.90
45207;DHT22;30950;53.086;21.576;2023-04-15T03:19:17;10.90;99.90
45207;DHT22;30950;53.086;21.576;2023-04-15T03:21:45;11.40;99.90
45207;DHT22;30950;53.086;21.576;2023-04-15T03:24:13;11.30;99.90
45207;DHT22;30950;53.086;21.576;2023-04-15T03:26:40;11.80;99.90
45207;DHT22;30950;53.086;21.576;2023-04-15T03:29:14;10.90;99.90
45207;DHT22;30950;53.086;21.576;2023-04-15T03:31:42;10.90;99.90
45207;DHT22;30950;53.086;21.576;2023-04-15T03:34:10;11.40;99.90
45207;DHT22;30950;53.086;21.576;2023-04-15T03:36:37;11.10;99.90
45207;DHT22;30950;53.086;21.576;2023-04-15T03:39:04;12.00;99.90
45207;DHT22;30950;53.086;21.576;2023-04-15T03:41:32;10.80;99.90
45207;DHT22;30950;53.086;21.576;2023-04-15T03:43:59;10.80;99.90
45207;DHT22;30950;53.086;21.576;2023-04-15T03:46:26;11.20;99.90
45207;DHT22;30950;53.086;21.576;2023-04-15T03:48:54;10.80;99.90
45207;DHT22;30950;53.086;21.576;2023-04-15T03:51:21;10.80;99.90
45207;DHT22;30950;53.086;21.576;2023-04-15T03:53:48;10.80;99.90
45207;DHT22;30950;53.086;21.576;2023-04-15T03:56:15;10.80;99.90
45207;DHT22;30950;53.086;21.576;2023-04-15T03:58:43;11.10;99.90
45207;DHT22;30950;53.086;21.576;2023-04-15T04:01:10;11.60;99.90
45207;DHT22;30950;53.086;21.576;2023-04-15T04:03:37;11.30;99.90
45207;DHT22;30950;53.086;21.576;2023-04-15T04:06:05;10.70;99.90
45207;DHT22;30950;53.086;21.576;2023-04-15T04:08:32;10.80;99.90
45207;DHT22;30950;53.086;21.576;2023-04-15T04:10:59;11.20;99.90
45207;DHT22;30950;53.086;21.576;2023-04-15T04:13:27;10.80;99.90
45207;DHT22;30950;53.086;21.576;2023-04-15T04:15:54;11.20;99.90
45207;DHT22;30950;53.086;21.576;2023-04-15T04:18:21;11.50;99.90
45207;DHT22;30950;53.086;21.576;2023-04-15T04:20:49;11.30;99.90
45207;DHT22;30950;53.086;21.576;2023-04-15T04:23:16;10.80;99.90
45207;DHT22;30950;53.086;21.576;2023-04-15T04:25:43;10.80;99.90
45207;DHT22;30950;53.086;21.576;2023-04-15T04:28:11;10.60;99.90
45207;DHT22;30950;53.086;21.576;2023-04-15T04:30:39;10.80;99.90
45207;DHT22;30950;53.086;21.576;2023-04-15T04:33:06;10.70;99.90
45207;DHT22;30950;53.086;21.576;2023-04-15T04:35:33;11.70;99.90
45207;DHT22;30950;53.086;21.576;2023-04-15T04:38:03;10.80;99.90
45207;DHT22;30950;53.086;21.576;2023-04-15T04:40:31;10.80;99.90
45207;DHT22;30950;53.086;21.576;2023-04-15T04:42:58;10.90;99.90
45207;DHT22;30950;53.086;21.576;2023-04-15T04:45:25;10.80;99.90
45207;DHT22;30950;53.086;21.576;2023-04-15T04:47:53;10.90;99.90
45207;DHT22;30950;53.086;21.576;2023-04-15T04:50:20;10.90;99.90
45207;DHT22;30950;53.086;21.576;2023-04-15T04:52:47;10.90;99.90
45207;DHT22;30950;53.086;21.576;2023-04-15T04:55:14;11.80;99.90
45207;DHT22;30950;53.086;21.576;2023-04-15T04:57:41;10.90;99.90
45207;DHT22;30950;53.086;21.576;2023-04-15T05:00:09;11.00;99.90
45207;DHT22;30950;53.086;21.576;2023-04-15T05:02:36;11.00;99.90
45207;DHT22;30950;53.086;21.576;2023-04-15T05:05:04;10.90;99.90
45207;DHT22;30950;53.086;21.576;2023-04-15T05:07:32;11.00;99.90
45207;DHT22;30950;53.086;21.576;2023-04-15T05:09:59;11.00;99.90
45207;DHT22;30950;53.086;21.576;2023-04-15T05:12:26;11.00;99.90
45207;DHT22;30950;53.086;21.576;2023-04-15T05:14:54;11.00;99.90
45207;DHT22;30950;53.086;21.576;2023-04-15T05:17:21;11.00;99.90
45207;DHT22;30950;53.086;21.576;2023-04-15T05:19:48;11.50;99.90
45207;DHT22;30950;53.086;21.576;2023-04-15T05:22:15;11.00;99.90
45207;DHT22;30950;53.086;21.576;2023-04-15T05:24:43;11.00;99.90
45207;DHT22;30950;53.086;21.576;2023-04-15T05:27:10;11.10;99.90
45207;DHT22;30950;53.086;21.576;2023-04-15T05:29:37;11.10;99.90
45207;DHT22;30950;53.086;21.576;2023-04-15T05:32:05;11.00;99.90
45207;DHT22;30950;53.086;21.576;2023-04-15T05:34:32;11.10;99.90
45207;DHT22;30950;53.086;21.576;2023-04-15T05:36:59;11.10;99.90
45207;DHT22;30950;53.086;21.576;2023-04-15T05:39:27;11.30;99.90
45207;DHT22;30950;53.086;21.576;2023-04-15T05:41:54;11.10;99.90
45207;DHT22;30950;53.086;21.576;2023-04-15T05:44:21;11.10;99.90
45207;DHT22;30950;53.086;21.576;2023-04-15T05:46:48;11.10;99.90
45207;DHT22;30950;53.086;21.576;2023-04-15T05:49:16;11.50;99.90
45207;DHT22;30950;53.086;21.576;2023-04-15T05:51:43;11.10;99.90
45207;DHT22;30950;53.086;21.576;2023-04-15T05:54:10;11.20;99.90
45207;DHT22;30950;53.086;21.576;2023-04-15T05:56:37;11.20;99.90
45207;DHT22;30950;53.086;21.576;2023-04-15T05:59:05;11.20;99.90
45207;DHT22;30950;53.086;21.576;2023-04-15T06:01:32;11.20;99.90
45207;DHT22;30950;53.086;21.576;2023-04-15T06:04:00;11.10;99.90
45207;DHT22;30950;53.086;21.576;2023-04-15T06:06:27;11.40;99.90
45207;DHT22;30950;53.086;21.576;2023-04-15T06:08:55;11.20;99.90
45207;DHT22;30950;53.086;21.576;2023-04-15T06:11:22;11.60;99.90
45207;DHT22;30950;53.086;21.576;2023-04-15T06:13:49;11.20;99.90
45207;DHT22;30950;53.086;21.576;2023-04-15T06:16:16;11.30;99.90
45207;DHT22;30950;53.086;21.576;2023-04-15T06:18:44;11.20;99.90
45207;DHT22;30950;53.086;21.576;2023-04-15T06:21:11;11.60;99.90
45207;DHT22;30950;53.086;21.576;2023-04-15T06:23:38;11.30;99.90
45207;DHT22;30950;53.086;21.576;2023-04-15T06:26:07;11.30;99.90
45207;DHT22;30950;53.086;21.576;2023-04-15T06:28:34;11.30;99.90
45207;DHT22;30950;53.086;21.576;2023-04-15T06:31:02;11.30;99.90
45207;DHT22;30950;53.086;21.576;2023-04-15T06:33:30;11.30;99.90
45207;DHT22;30950;53.086;21.576;2023-04-15T06:35:57;11.20;99.90
45207;DHT22;30950;53.086;21.576;2023-04-15T06:38:24;11.50;99.90
45207;DHT22;30950;53.086;21.576;2023-04-15T06:40:52;11.30;99.90
45207;DHT22;30950;53.086;21.576;2023-04-15T06:43:19;11.90;99.90
45207;DHT22;30950;53.086;21.576;2023-04-15T06:45:46;11.60;99.90
45207;DHT22;30950;53.086;21.576;2023-04-15T06:48:14;11.60;99.90
45207;DHT22;30950;53.086;21.576;2023-04-15T06:50:41;11.30;99.90
45207;DHT22;30950;53.086;21.576;2023-04-15T06:53:09;11.30;99.90
45207;DHT22;30950;53.086;21.576;2023-04-15T06:55:36;11.30;99.90
45207;DHT22;30950;53.086;21.576;2023-04-15T06:58:03;11.30;99.90
45207;DHT22;30950;53.086;21.576;2023-04-15T07:00:30;11.20;99.90
45207;DHT22;30950;53.086;21.576;2023-04-15T07:02:59;12.10;99.90
45207;DHT22;30950;53.086;21.576;2023-04-15T07:05:30;11.30;99.90
45207;DHT22;30950;53.086;21.576;2023-04-15T07:07:58;11.30;99.90
45207;DHT22;30950;53.086;21.576;2023-04-15T07:10:26;11.70;99.90
45207;DHT22;30950;53.086;21.576;2023-04-15T07:12:53;11.30;99.90
45207;DHT22;30950;53.086;21.576;2023-04-15T07:15:20;11.40;99.90
45207;DHT22;30950;53.086;21.576;2023-04-15T07:17:48;11.40;99.90
45207;DHT22;30950;53.086;21.576;2023-04-15T07:20:15;11.30;99.90
45207;DHT22;30950;53.086;21.576;2023-04-15T07:22:43;11.40;99.90
45207;DHT22;30950;53.086;21.576;2023-04-15T07:25:10;11.50;99.90
45207;DHT22;30950;53.086;21.576;2023-04-15T07:27:37;11.40;99.90
45207;DHT22;30950;53.086;21.576;2023-04-15T07:30:05;11.60;99.90
45207;DHT22;30950;53.086;21.576;2023-04-15T07:32:33;11.40;99.90
45207;DHT22;30950;53.086;21.576;2023-04-15T07:35:00;11.70;99.90
45207;DHT22;30950;53.086;21.576;2023-04-15T07:37:28;11.50;99.90
45207;DHT22;30950;53.086;21.576;2023-04-15T07:39:55;11.50;99.90
45207;DHT22;30950;53.086;21.576;2023-04-15T07:42:23;11.50;99.90
45207;DHT22;30950;53.086;21.576;2023-04-15T07:44:50;11.70;99.90
45207;DHT22;30950;53.086;21.576;2023-04-15T07:47:18;11.50;99.90
45207;DHT22;30950;53.086;21.576;2023-04-15T07:49:45;11.60;99.90
45207;DHT22;30950;53.086;21.576;2023-04-15T07:52:13;11.60;99.90
45207;DHT22;30950;53.086;21.576;2023-04-15T07:54:40;11.70;99.90
45207;DHT22;30950;53.086;21.576;2023-04-15T07:57:07;11.50;99.90
45207;DHT22;30950;53.086;21.576;2023-04-15T07:59:34;11.50;99.90
45207;DHT22;30950;53.086;21.576;2023-04-15T08:02:02;11.40;99.90
45207;DHT22;30950;53.086;21.576;2023-04-15T08:04:30;11.50;99.90
45207;DHT22;30950;53.086;21.576;2023-04-15T08:06:58;12.00;99.90
45207;DHT22;30950;53.086;21.576;2023-04-15T08:09:26;11.40;99.90
45207;DHT22;30950;53.086;21.576;2023-04-15T08:11:53;11.40;99.90
45207;DHT22;30950;53.086;21.576;2023-04-15T08:14:20;11.40;99.90
45207;DHT22;30950;53.086;21.576;2023-04-15T08:16:48;11.40;99.90
45207;DHT22;30950;53.086;21.576;2023-04-15T08:19:15;11.90;99.90
45207;DHT22;30950;53.086;21.576;2023-04-15T08:21:43;11.40;99.90
45207;DHT22;30950;53.086;21.576;2023-04-15T08:24:10;11.50;99.90
45207;DHT22;30950;53.086;21.576;2023-04-15T08:26:38;11.60;99.90
45207;DHT22;30950;53.086;21.576;2023-04-15T08:29:05;11.30;99.90
45207;DHT22;30950;53.086;21.576;2023-04-15T08:31:32;11.50;99.90
45207;DHT22;30950;53.086;21.576;2023-04-15T08:33:59;11.30;99.90
45207;DHT22;30950;53.086;21.576;2023-04-15T08:36:27;11.70;99.90
45207;DHT22;30950;53.086;21.576;2023-04-15T08:38:54;11.30;99.90
45207;DHT22;30950;53.086;21.576;2023-04-15T08:41:23;11.70;99.90
45207;DHT22;30950;53.086;21.576;2023-04-15T08:43:57;11.40;99.90
45207;DHT22;30950;53.086;21.576;2023-04-15T08:46:27;11.60;99.90
45207;DHT22;30950;53.086;21.576;2023-04-15T08:48:56;11.40;99.90
45207;DHT22;30950;53.086;21.576;2023-04-15T08:51:24;11.40;99.90
45207;DHT22;30950;53.086;21.576;2023-04-15T08:53:52;11.40;99.90
45207;DHT22;30950;53.086;21.576;2023-04-15T08:56:24;12.50;99.90
45207;DHT22;30950;53.086;21.576;2023-04-15T08:58:52;11.40;99.90
45207;DHT22;30950;53.086;21.576;2023-04-15T09:01:19;11.40;99.90
45207;DHT22;30950;53.086;21.576;2023-04-15T09:03:51;11.80;99.90
45207;DHT22;30950;53.086;21.576;2023-04-15T09:06:22;12.40;99.90
45207;DHT22;30950;53.086;21.576;2023-04-15T09:08:49;11.30;99.90
45207;DHT22;30950;53.086;21.576;2023-04-15T09:11:18;11.30;99.90
45207;DHT22;30950;53.086;21.576;2023-04-15T09:13:48;11.30;99.90
45207;DHT22;30950;53.086;21.576;2023-04-15T09:16:15;11.30;99.90
45207;DHT22;30950;53.086;21.576;2023-04-15T09:18:43;11.30;99.90
45207;DHT22;30950;53.086;21.576;2023-04-15T09:21:12;11.20;99.90
45207;DHT22;30950;53.086;21.576;2023-04-15T09:23:53;11.20;99.90
45207;DHT22;30950;53.086;21.576;2023-04-15T09:26:35;11.90;99.90
45207;DHT22;30950;53.086;21.576;2023-04-15T09:29:11;11.20;99.90
45207;DHT22;30950;53.086;21.576;2023-04-15T09:31:42;11.20;99.90
45207;DHT22;30950;53.086;21.576;2023-04-15T09:34:09;11.20;99.90
45207;DHT22;30950;53.086;21.576;2023-04-15T09:36:56;11.10;99.90
45207;DHT22;30950;53.086;21.576;2023-04-15T09:39:23;11.90;99.90
45207;DHT22;30950;53.086;21.576;2023-04-15T09:42:06;11.80;99.90
45207;DHT22;30950;53.086;21.576;2023-04-15T09:44:34;11.30;99.90
45207;DHT22;30950;53.086;21.576;2023-04-15T09:47:01;11.10;99.90
45207;DHT22;30950;53.086;21.576;2023-04-15T09:49:31;11.00;99.90
45207;DHT22;30950;53.086;21.576;2023-04-15T09:52:00;11.00;99.90
45207;DHT22;30950;53.086;21.576;2023-04-15T09:54:36;10.90;99.90
45207;DHT22;30950;53.086;21.576;2023-04-15T09:57:06;11.00;99.90
45207;DHT22;30950;53.086;21.576;2023-04-15T09:59:33;10.90;99.90
45207;DHT22;30950;53.086;21.576;2023-04-15T10:02:03;10.90;99.90
45207;DHT22;30950;53.086;21.576;2023-04-15T10:04:34;10.90;99.90
45207;DHT22;30950;53.086;21.576;2023-04-15T10:07:04;12.60;99.90
45207;DHT22;30950;53.086;21.576;2023-04-15T10:09:32;11.70;99.90
45207;DHT22;30950;53.086;21.576;2023-04-15T10:12:02;11.30;99.90
45207;DHT22;30950;53.086;21.576;2023-04-15T10:14:37;10.70;99.90
45207;DHT22;30950;53.086;21.576;2023-04-15T10:17:05;11.30;99.90
45207;DHT22;30950;53.086;21.576;2023-04-15T10:19:36;10.60;99.90
45207;DHT22;30950;53.086;21.576;2023-04-15T10:22:03;11.30;99.90
45207;DHT22;30950;53.086;21.576;2023-04-15T10:24:31;10.70;99.90
45207;DHT22;30950;53.086;21.576;2023-04-15T10:26:59;10.60;99.90
45207;DHT22;30950;53.086;21.576;2023-04-15T10:29:27;10.70;99.90
45207;DHT22;30950;53.086;21.576;2023-04-15T10:31:56;10.70;99.90
45207;DHT22;30950;53.086;21.576;2023-04-15T10:34:25;10.60;99.90
45207;DHT22;30950;53.086;21.576;2023-04-15T10:37:00;10.90;99.90
45207;DHT22;30950;53.086;21.576;2023-04-15T10:42:16;10.70;99.90
45207;DHT22;30950;53.086;21.576;2023-04-15T10:44:48;10.70;99.90
45207;DHT22;30950;53.086;21.576;2023-04-15T10:47:20;10.70;99.90
45207;DHT22;30950;53.086;21.576;2023-04-15T10:49:50;10.60;99.90
45207;DHT22;30950;53.086;21.576;2023-04-15T10:52:25;10.80;99.90
45207;DHT22;30950;53.086;21.576;2023-04-15T10:57:40;10.80;99.90
45207;DHT22;30950;53.086;21.576;2023-04-15T11:00:14;10.80;99.90
45207;DHT22;30950;53.086;21.576;2023-04-15T11:05:14;10.80;99.90
45207;DHT22;30950;53.086;21.576;2023-04-15T11:12:45;10.60;99.90
45207;DHT22;30950;53.086;21.576;2023-04-15T11:15:38;10.60;99.90
45207;DHT22;30950;53.086;21.576;2023-04-15T11:18:16;10.50;99.90
45207;DHT22;30950;53.086;21.576;2023-04-15T11:20:47;10.50;99.90
45207;DHT22;30950;53.086;21.576;2023-04-15T11:23:15;10.50;99.90
45207;DHT22;30950;53.086;21.576;2023-04-15T11:25:43;10.60;99.90
45207;DHT22;30950;53.086;21.576;2023-04-15T11:28:12;11.20;99.90
45207;DHT22;30950;53.086;21.576;2023-04-15T11:30:39;10.40;99.90
45207;DHT22;30950;53.086;21.576;2023-04-15T11:33:10;10.60;99.90
45207;DHT22;30950;53.086;21.576;2023-04-15T11:35:40;9.90;99.90
45207;DHT22;30950;53.086;21.576;2023-04-15T11:38:13;11.00;99.90
45207;DHT22;30950;53.086;21.576;2023-04-15T11:40:42;10.00;99.90
45207;DHT22;30950;53.086;21.576;2023-04-15T11:43:15;11.40;99.90
45207;DHT22;30950;53.086;21.576;2023-04-15T11:45:59;10.30;99.90
45207;DHT22;30950;53.086;21.576;2023-04-15T11:48:30;10.30;99.90
45207;DHT22;30950;53.086;21.576;2023-04-15T11:51:04;10.40;99.90
45207;DHT22;30950;53.086;21.576;2023-04-15T11:53:47;10.30;99.90
45207;DHT22;30950;53.086;21.576;2023-04-15T11:56:22;10.40;99.90
45207;DHT22;30950;53.086;21.576;2023-04-15T11:58:54;10.40;99.90
45207;DHT22;30950;53.086;21.576;2023-04-15T12:01:32;10.30;99.90
45207;DHT22;30950;53.086;21.576;2023-04-15T12:04:01;10.40;99.90
45207;DHT22;30950;53.086;21.576;2023-04-15T12:06:32;10.50;99.90
45207;DHT22;30950;53.086;21.576;2023-04-15T12:09:12;11.20;99.90
45207;DHT22;30950;53.086;21.576;2023-04-15T12:11:44;10.50;99.90
45207;DHT22;30950;53.086;21.576;2023-04-15T12:16:59;10.50;99.90
45207;DHT22;30950;53.086;21.576;2023-04-15T12:19:45;10.50;99.90
45207;DHT22;30950;53.086;21.576;2023-04-15T12:22:15;10.50;99.90
45207;DHT22;30950;53.086;21.576;2023-04-15T12:24:44;10.50;99.90
45207;DHT22;30950;53.086;21.576;2023-04-15T12:27:15;10.60;99.90
45207;DHT22;30950;53.086;21.576;2023-04-15T12:29:43;10.60;99.90
45207;DHT22;30950;53.086;21.576;2023-04-15T12:32:11;10.40;99.90
45207;DHT22;30950;53.086;21.576;2023-04-15T12:34:43;10.40;99.90
45207;DHT22;30950;53.086;21.576;2023-04-15T12:37:12;10.40;99.90
45207;DHT22;30950;53.086;21.576;2023-04-15T12:39:42;10.40;99.90
45207;DHT22;30950;53.086;21.576;2023-04-15T12:42:10;10.40;99.90
45207;DHT22;30950;53.086;21.576;2023-04-15T12:44:38;10.40;99.90
45207;DHT22;30950;53.086;21.576;2023-04-15T12:47:07;10.70;99.90
45207;DHT22;30950;53.086;21.576;2023-04-15T12:52:02;10.50;99.90
45207;DHT22;30950;53.086;21.576;2023-04-15T12:54:30;10.50;99.90
45207;DHT22;30950;53.086;21.576;2023-04-15T12:56:58;10.50;99.90
45207;DHT22;30950;53.086;21.576;2023-04-15T12:59:27;11.00;99.90
45207;DHT22;30950;53.086;21.576;2023-04-15T13:01:54;10.60;99.90
45207;DHT22;30950;53.086;21.576;2023-04-15T13:04:22;10.50;99.90
45207;DHT22;30950;53.086;21.576;2023-04-15T13:06:49;10.60;99.90
45207;DHT22;30950;53.086;21.576;2023-04-15T13:09:17;10.60;99.90
45207;DHT22;30950;53.086;21.576;2023-04-15T13:11:44;10.70;99.90
45207;DHT22;30950;53.086;21.576;2023-04-15T13:14:12;10.70;99.90
45207;DHT22;30950;53.086;21.576;2023-04-15T13:16:39;10.50;99.90
45207;DHT22;30950;53.086;21.576;2023-04-15T13:19:07;10.70;99.90
45207;DHT22;30950;53.086;21.576;2023-04-15T13:21:34;11.10;99.90
45207;DHT22;30950;53.086;21.576;2023-04-15T13:24:03;10.70;99.90
45207;DHT22;30950;53.086;21.576;2023-04-15T13:26:33;10.70;99.90
45207;DHT22;30950;53.086;21.576;2023-04-15T13:29:01;10.70;99.90
45207;DHT22;30950;53.086;21.576;2023-04-15T13:31:28;10.80;99.90
45207;DHT22;30950;53.086;21.576;2023-04-15T13:33:56;10.70;99.90
45207;DHT22;30950;53.086;21.576;2023-04-15T13:36:23;10.60;99.90
45207;DHT22;30950;53.086;21.576;2023-04-15T13:38:50;10.90;99.90
45207;DHT22;30950;53.086;21.576;2023-04-15T13:41:18;11.00;99.90
45207;DHT22;30950;53.086;21.576;2023-04-15T13:43:46;10.50;99.90
45207;DHT22;30950;53.086;21.576;2023-04-15T13:46:13;10.50;99.90
45207;DHT22;30950;53.086;21.576;2023-04-15T13:48:41;10.90;99.90
45207;DHT22;30950;53.086;21.576;2023-04-15T13:51:08;10.40;99.90
45207;DHT22;30950;53.086;21.576;2023-04-15T13:53:35;10.40;99.90
45207;DHT22;30950;53.086;21.576;2023-04-15T13:56:06;11.30;99.90
45207;DHT22;30950;53.086;21.576;2023-04-15T13:58:34;10.40;99.90
45207;DHT22;30950;53.086;21.576;2023-04-15T14:01:02;10.40;99.90
45207;DHT22;30950;53.086;21.576;2023-04-15T14:03:33;10.40;99.90
45207;DHT22;30950;53.086;21.576;2023-04-15T14:06:01;10.40;99.90
45207;DHT22;30950;53.086;21.576;2023-04-15T14:08:29;10.40;99.90
45207;DHT22;30950;53.086;21.576;2023-04-15T14:10:56;10.40;99.90
45207;DHT22;30950;53.086;21.576;2023-04-15T14:13:24;10.40;99.90
45207;DHT22;30950;53.086;21.576;2023-04-15T14:15:51;10.40;99.90
45207;DHT22;30950;53.086;21.576;2023-04-15T14:18:18;10.40;99.90
45207;DHT22;30950;53.086;21.576;2023-04-15T14:20:46;10.30;99.90
45207;DHT22;30950;53.086;21.576;2023-04-15T14:23:13;10.30;99.90
45207;DHT22;30950;53.086;21.576;2023-04-15T14:25:40;10.30;99.90
45207;DHT22;30950;53.086;21.576;2023-04-15T14:28:08;10.20;99.90
45207;DHT22;30950;53.086;21.576;2023-04-15T14:30:35;10.20;99.90
45207;DHT22;30950;53.086;21.576;2023-04-15T14:33:03;11.30;99.90
45207;DHT22;30950;53.086;21.576;2023-04-15T14:35:30;11.20;99.90
45207;DHT22;30950;53.086;21.576;2023-04-15T14:37:57;10.10;99.90
45207;DHT22;30950;53.086;21.576;2023-04-15T14:40:24;10.30;99.90
45207;DHT22;30950;53.086;21.576;2023-04-15T14:42:52;10.10;99.90
45207;DHT22;30950;53.086;21.576;2023-04-15T14:45:19;10.00;99.90
45207;DHT22;30950;53.086;21.576;2023-04-15T14:47:46;10.10;99.90
45207;DHT22;30950;53.086;21.576;2023-04-15T14:50:14;9.90;99.90
45207;DHT22;30950;53.086;21.576;2023-04-15T14:52:41;9.80;99.90
45207;DHT22;30950;53.086;21.576;2023-04-15T14:55:10;9.80;99.90
45207;DHT22;30950;53.086;21.576;2023-04-15T14:57:38;9.80;99.90
45207;DHT22;30950;53.086;21.576;2023-04-15T15:00:07;10.30;99.90
45207;DHT22;30950;53.086;21.576;2023-04-15T15:02:35;9.70;99.90
45207;DHT22;30950;53.086;21.576;2023-04-15T15:05:08;9.70;99.90
45207;DHT22;30950;53.086;21.576;2023-04-15T15:07:37;9.60;99.90
45207;DHT22;30950;53.086;21.576;2023-04-15T15:10:06;9.70;99.90
45207;DHT22;30950;53.086;21.576;2023-04-15T15:12:33;9.60;99.90
45207;DHT22;30950;53.086;21.576;2023-04-15T15:15:02;9.60;99.90
45207;DHT22;30950;53.086;21.576;2023-04-15T15:20:13;9.60;99.90
45207;DHT22;30950;53.086;21.576;2023-04-15T15:22:42;9.60;99.90
45207;DHT22;30950;53.086;21.576;2023-04-15T15:25:09;9.50;99.90
45207;DHT22;30950;53.086;21.576;2023-04-15T15:27:37;9.50;99.90
45207;DHT22;30950;53.086;21.576;2023-04-15T15:30:04;10.00;99.90
45207;DHT22;30950;53.086;21.576;2023-04-15T15:32:33;9.40;99.90
45207;DHT22;30950;53.086;21.576;2023-04-15T15:35:00;9.50;99.90
45207;DHT22;30950;53.086;21.576;2023-04-15T15:37:29;9.40;99.90
45207;DHT22;30950;53.086;21.576;2023-04-15T15:39:56;9.40;99.90
45207;DHT22;30950;53.086;21.576;2023-04-15T15:42:30;9.30;99.90
45207;DHT22;30950;53.086;21.576;2023-04-15T15:44:57;9.30;99.90
45207;DHT22;30950;53.086;21.576;2023-04-15T15:47:25;9.30;99.90